Time;durP1;ratioP1;P1;durP2;ratioP2;P2;SDS_P1;SDS_P2;PMS_P1;PMS_P2;Temp;Humidity;BMP_temperature;BMP_pressure;BME280_temperature;BME280_humidity;BME280_pressure;Samples;Min_cycle;Max_cycle;Signal;HPM_P1;HPM_P2
2023/02/09 00:02:18;;;;;;;71.88;34.75;;;;;;;;;;5055669;28;20025;-77
2023/02/09 00:05:04;;;;;;;86.32;40.47;;;;;;;;;;5056271;28;20028;-77
2023/02/09 00:07:49;;;;;;;102.38;44.72;;;;;;;;;;5055552;28;20404;-77
2023/02/09 00:10:37;;;;;;;95.40;42.97;;;;;;;;;;5055872;28;20060;-76
2023/02/09 00:13:23;;;;;;;105.80;47.70;;;;;;;;;;5055272;28;20021;-76
2023/02/09 00:16:09;;;;;;;112.93;49.08;;;;;;;;;;5054854;28;20060;-77
2023/02/09 00:18:56;;;;;;;144.98;59.83;;;;;;;;;;5054899;28;20024;-76
2023/02/09 00:21:41;;;;;;;107.25;49.55;;;;;;;;;;5055028;28;20369;-76
2023/02/09 00:24:27;;;;;;;229.35;88.38;;;;;;;;;;5055452;28;20021;-78
2023/02/09 00:27:12;;;;;;;281.13;105.53;;;;;;;;;;5055637;28;20420;-77
2023/02/09 00:29:58;;;;;;;215.82;83.85;;;;;;;;;;5054490;28;20404;-76
2023/02/09 00:32:44;;;;;;;168.30;64.22;;;;;;;;;;5055169;28;20044;-76
2023/02/09 00:35:29;;;;;;;116.15;51.30;;;;;;;;;;5054493;28;20040;-76
2023/02/09 00:38:15;;;;;;;113.18;47.55;;;;;;;;;;5055675;28;20482;-76
2023/02/09 00:41:01;;;;;;;100.20;44.28;;;;;;;;;;5055297;28;20105;-76
2023/02/09 00:43:46;;;;;;;96.43;43.00;;;;;;;;;;5054710;28;20430;-77
2023/02/09 00:46:32;;;;;;;85.75;37.53;;;;;;;;;;5054670;28;20029;-77
2023/02/09 00:49:17;;;;;;;74.40;35.05;;;;;;;;;;5054616;28;20382;-78
2023/02/09 00:52:03;;;;;;;75.85;33.95;;;;;;;;;;5055239;28;20021;-75
2023/02/09 00:54:49;;;;;;;69.63;34.03;;;;;;;;;;5054630;28;20025;-76
2023/02/09 00:57:35;;;;;;;74.10;34.45;;;;;;;;;;5054833;28;20114;-76
2023/02/09 01:00:20;;;;;;;73.20;33.63;;;;;;;;;;5055781;28;20450;-76
2023/02/09 01:03:06;;;;;;;71.30;34.63;;;;;;;;;;5055371;28;20400;-75
2023/02/09 01:05:52;;;;;;;69.82;33.60;;;;;;;;;;5054983;28;20021;-75
2023/02/09 01:08:37;;;;;;;79.03;35.72;;;;;;;;;;5055224;28;20035;-76
2023/02/09 01:11:26;;;;;;;74.55;35.78;;;;;;;;;;5054248;28;20388;-76
2023/02/09 01:14:12;;;;;;;76.25;35.55;;;;;;;;;;5055827;28;20024;-78
2023/02/09 01:16:58;;;;;;;76.63;36.95;;;;;;;;;;5054115;28;20099;-76
2023/02/09 01:19:43;;;;;;;74.20;34.83;;;;;;;;;;5054528;28;20013;-76
2023/02/09 01:22:29;;;;;;;76.13;35.75;;;;;;;;;;5054881;28;20024;-77
2023/02/09 01:25:14;;;;;;;77.90;36.30;;;;;;;;;;5055177;28;20017;-74
2023/02/09 01:28:00;;;;;;;79.82;37.00;;;;;;;;;;5055102;28;20033;-77
2023/02/09 01:30:46;;;;;;;76.60;36.85;;;;;;;;;;5059802;28;20078;-73
2023/02/09 01:33:32;;;;;;;69.55;34.92;;;;;;;;;;5075714;28;20040;-77
2023/02/09 01:36:17;;;;;;;68.68;31.88;;;;;;;;;;5075556;28;20005;-76
2023/02/09 01:39:03;;;;;;;67.93;31.63;;;;;;;;;;5075974;28;20046;-76
2023/02/09 01:41:48;;;;;;;56.38;27.85;;;;;;;;;;5074636;28;20017;-76
2023/02/09 01:44:34;;;;;;;54.63;24.27;;;;;;;;;;5074278;28;20023;-76
2023/02/09 01:47:20;;;;;;;54.50;24.67;;;;;;;;;;5072746;28;20021;-74
2023/02/09 01:50:06;;;;;;;51.58;23.88;;;;;;;;;;5072850;28;20342;-75
2023/02/09 01:52:52;;;;;;;49.90;21.95;;;;;;;;;;5068935;28;20013;-75
2023/02/09 01:55:47;;;;;;;51.90;21.15;;;;;;;;;;5068716;28;20040;-75
2023/02/09 01:58:33;;;;;;;54.45;25.08;;;;;;;;;;5061988;28;20028;-78
2023/02/09 02:01:19;;;;;;;55.78;26.10;;;;;;;;;;5065929;28;20093;-75
2023/02/09 02:04:05;;;;;;;56.53;25.98;;;;;;;;;;5072293;28;20441;-76
2023/02/09 02:06:53;;;;;;;59.22;25.58;;;;;;;;;;5071871;28;20039;-78
2023/02/09 02:09:39;;;;;;;50.22;24.50;;;;;;;;;;5073522;28;20044;-78
2023/02/09 02:12:25;;;;;;;54.25;23.73;;;;;;;;;;5075946;28;20076;-76
2023/02/09 02:15:10;;;;;;;56.65;25.70;;;;;;;;;;5078091;28;20036;-75
2023/02/09 02:18:19;;;;;;;52.72;23.20;;;;;;;;;;5074680;28;20032;-75
2023/02/09 02:21:33;;;;;;;49.95;23.35;;;;;;;;;;5078060;28;20020;-76
2023/02/09 02:24:37;;;;;;;49.42;23.20;;;;;;;;;;5078823;28;20020;-75
2023/02/09 02:27:29;;;;;;;52.65;23.38;;;;;;;;;;5070660;28;20014;-76
2023/02/09 02:30:26;;;;;;;67.47;30.20;;;;;;;;;;5063633;28;20130;-77
2023/02/09 02:33:45;;;;;;;58.42;27.45;;;;;;;;;;5065744;28;20027;-77
2023/02/09 02:36:34;;;;;;;50.33;22.77;;;;;;;;;;5052011;28;20059;-76
2023/02/09 02:39:30;;;;;;;53.22;25.23;;;;;;;;;;5070308;28;20076;-76
2023/02/09 02:42:47;;;;;;;46.50;22.42;;;;;;;;;;5073923;28;20047;-77
2023/02/09 02:45:35;;;;;;;50.53;22.73;;;;;;;;;;5076114;28;20009;-78
2023/02/09 02:48:36;;;;;;;59.80;24.42;;;;;;;;;;5075853;28;20314;-78
2023/02/09 02:51:26;;;;;;;48.22;22.20;;;;;;;;;;5075825;28;20009;-77
2023/02/09 02:54:20;;;;;;;50.55;21.88;;;;;;;;;;5076977;28;20048;-77
2023/02/09 02:57:09;;;;;;;49.67;22.52;;;;;;;;;;5068087;28;20032;-76
2023/02/09 02:59:57;;;;;;;46.30;21.95;;;;;;;;;;5060214;28;20013;-76
2023/02/09 03:02:46;;;;;;;48.75;23.35;;;;;;;;;;5057373;28;20021;-76
2023/02/09 03:05:32;;;;;;;50.30;23.33;;;;;;;;;;5058075;28;20063;-76
2023/02/09 03:08:17;;;;;;;57.80;23.92;;;;;;;;;;5058376;28;20127;-77
2023/02/09 03:11:03;;;;;;;48.90;23.35;;;;;;;;;;5058177;28;20430;-77
2023/02/09 03:14:08;;;;;;;53.88;23.13;;;;;;;;;;5058629;28;20036;-76
2023/02/09 03:17:17;;;;;;;49.28;22.80;;;;;;;;;;5057532;28;20017;-77
2023/02/09 03:20:15;;;;;;;49.85;22.17;;;;;;;;;;5055709;28;20025;-77
2023/02/09 03:23:03;;;;;;;47.95;22.70;;;;;;;;;;5057846;28;20353;-78
2023/02/09 03:25:51;;;;;;;43.95;20.80;;;;;;;;;;5057079;28;20033;-77
2023/02/09 03:28:38;;;;;;;47.95;22.85;;;;;;;;;;5057971;28;20517;-78
2023/02/09 03:31:24;;;;;;;42.50;21.10;;;;;;;;;;5057107;28;20025;-78
2023/02/09 03:34:09;;;;;;;49.35;21.88;;;;;;;;;;5056191;28;20025;-78
2023/02/09 03:36:56;;;;;;;46.30;21.83;;;;;;;;;;5056183;28;20104;-78
2023/02/09 03:39:41;;;;;;;47.83;22.80;;;;;;;;;;5057421;28;20029;-78
2023/02/09 03:42:27;;;;;;;43.13;20.48;;;;;;;;;;5056991;28;20031;-78
2023/02/09 03:45:13;;;;;;;44.03;22.42;;;;;;;;;;5056951;28;20029;-78
2023/02/09 03:47:59;;;;;;;50.60;22.58;;;;;;;;;;5056329;28;20021;-79
2023/02/09 03:50:45;;;;;;;43.08;21.92;;;;;;;;;;5056857;28;20012;-77
2023/02/09 03:53:31;;;;;;;45.75;20.73;;;;;;;;;;5056615;28;20025;-78
2023/02/09 03:56:17;;;;;;;53.30;23.67;;;;;;;;;;5058822;28;20025;-77
2023/02/09 03:59:03;;;;;;;53.55;24.73;;;;;;;;;;5062700;28;20027;-76
2023/02/09 04:01:50;;;;;;;64.85;25.08;;;;;;;;;;5061647;28;20035;-77
2023/02/09 04:04:39;;;;;;;70.80;29.48;;;;;;;;;;5072397;28;20029;-75
2023/02/09 04:07:24;;;;;;;70.70;31.45;;;;;;;;;;5071729;28;20059;-75
2023/02/09 04:10:10;;;;;;;75.85;33.80;;;;;;;;;;5059837;28;20021;-77
2023/02/09 04:12:55;;;;;;;85.07;35.15;;;;;;;;;;5057916;28;20067;-78
2023/02/09 04:15:41;;;;;;;87.45;36.75;;;;;;;;;;5056892;28;20017;-78
2023/02/09 04:18:27;;;;;;;94.43;40.30;;;;;;;;;;5056386;28;20021;-78
2023/02/09 04:21:12;;;;;;;105.95;41.85;;;;;;;;;;5056130;28;20017;-78
2023/02/09 04:23:58;;;;;;;96.75;38.70;;;;;;;;;;5056604;28;20032;-77
2023/02/09 04:26:43;;;;;;;84.93;37.28;;;;;;;;;;5055770;28;20357;-78
2023/02/09 04:29:29;;;;;;;79.13;35.10;;;;;;;;;;5056516;28;20017;-78
2023/02/09 04:32:15;;;;;;;70.90;32.17;;;;;;;;;;5056698;28;20052;-78
2023/02/09 04:35:00;;;;;;;71.53;30.45;;;;;;;;;;5056307;28;20021;-78
2023/02/09 04:37:46;;;;;;;71.70;33.03;;;;;;;;;;5056184;28;20025;-78
2023/02/09 04:40:32;;;;;;;68.43;30.45;;;;;;;;;;5055372;28;20017;-78
2023/02/09 04:43:17;;;;;;;69.85;31.73;;;;;;;;;;5057170;28;20473;-77
2023/02/09 04:46:03;;;;;;;65.47;29.15;;;;;;;;;;5055474;28;20021;-75
2023/02/09 04:48:49;;;;;;;60.35;28.42;;;;;;;;;;5055111;28;20035;-77
2023/02/09 04:51:35;;;;;;;54.30;25.33;;;;;;;;;;5055381;28;20339;-77
2023/02/09 04:54:20;;;;;;;45.40;21.40;;;;;;;;;;5054096;28;20027;-78
2023/02/09 05:00:11;;;;;;;48.20;20.13;;;;;;;;;;5054907;28;20013;-78
2023/02/09 05:02:56;;;;;;;43.25;19.80;;;;;;;;;;5055944;28;20111;-77
2023/02/09 05:05:42;;;;;;;45.78;20.40;;;;;;;;;;5055841;28;20077;-77
2023/02/09 05:08:28;;;;;;;47.42;20.73;;;;;;;;;;5054962;28;20342;-78
2023/02/09 05:11:13;;;;;;;46.22;20.80;;;;;;;;;;5053736;28;20024;-78
2023/02/09 05:13:59;;;;;;;35.65;17.95;;;;;;;;;;5055509;28;20013;-77
2023/02/09 05:16:44;;;;;;;40.33;17.80;;;;;;;;;;5054456;28;20059;-77
2023/02/09 05:19:30;;;;;;;38.03;17.80;;;;;;;;;;5054509;28;20319;-77
2023/02/09 05:22:16;;;;;;;38.38;17.65;;;;;;;;;;5054413;28;20021;-77
2023/02/09 05:25:01;;;;;;;40.58;17.60;;;;;;;;;;5055794;28;20017;-77
2023/02/09 05:27:47;;;;;;;37.80;18.13;;;;;;;;;;5054903;28;20025;-77
2023/02/09 05:30:33;;;;;;;38.30;16.58;;;;;;;;;;5055384;28;20032;-76
2023/02/09 05:33:19;;;;;;;35.10;16.40;;;;;;;;;;5054269;28;20319;-78
2023/02/09 05:36:08;;;;;;;34.95;17.10;;;;;;;;;;5053830;28;20331;-77
2023/02/09 05:38:53;;;;;;;36.80;15.95;;;;;;;;;;5055539;28;20053;-77
2023/02/09 05:44:44;;;;;;;41.30;17.48;;;;;;;;;;5054898;28;20028;-77
2023/02/09 05:47:29;;;;;;;35.40;17.05;;;;;;;;;;5053494;28;20082;-77
2023/02/09 05:50:15;;;;;;;36.10;17.42;;;;;;;;;;5055881;28;20433;-78
2023/02/09 05:53:01;;;;;;;35.17;15.77;;;;;;;;;;5054536;28;20085;-78
2023/02/09 05:55:47;;;;;;;37.83;15.40;;;;;;;;;;5054107;28;20529;-77
2023/02/09 05:58:32;;;;;;;32.22;13.48;;;;;;;;;;5054454;28;20029;-77
2023/02/09 06:01:18;;;;;;;35.67;15.50;;;;;;;;;;5054461;28;20029;-76
2023/02/09 06:04:03;;;;;;;32.45;14.98;;;;;;;;;;5053314;28;20052;-78
2023/02/09 06:06:49;;;;;;;30.65;14.80;;;;;;;;;;5054143;28;20082;-77
2023/02/09 06:09:35;;;;;;;32.08;15.70;;;;;;;;;;5055702;28;20017;-77
2023/02/09 06:12:20;;;;;;;36.00;15.52;;;;;;;;;;5055054;28;20017;-78
2023/02/09 06:15:06;;;;;;;35.53;15.10;;;;;;;;;;5053394;28;20078;-78
2023/02/09 06:17:51;;;;;;;31.35;14.80;;;;;;;;;;5053388;28;20013;-77
2023/02/09 06:20:37;;;;;;;41.05;17.15;;;;;;;;;;5054646;28;20075;-77
2023/02/09 06:23:23;;;;;;;32.53;15.40;;;;;;;;;;5054656;28;20028;-77
2023/02/09 06:26:10;;;;;;;35.53;15.23;;;;;;;;;;5055115;28;20118;-77
2023/02/09 06:28:55;;;;;;;38.60;16.15;;;;;;;;;;5053797;28;20032;-78
2023/02/09 06:31:41;;;;;;;37.50;16.40;;;;;;;;;;5053792;28;20124;-78
2023/02/09 06:34:27;;;;;;;36.28;16.90;;;;;;;;;;5053742;28;20084;-77
2023/02/09 06:37:12;;;;;;;33.38;15.38;;;;;;;;;;5054955;28;20364;-78
2023/02/09 06:39:58;;;;;;;38.92;15.85;;;;;;;;;;5054827;28;20100;-78
2023/02/09 06:42:43;;;;;;;35.25;16.20;;;;;;;;;;5053383;28;20049;-76
2023/02/09 06:45:29;;;;;;;38.03;15.40;;;;;;;;;;5054527;28;20404;-77
2023/02/09 06:48:15;;;;;;;36.22;15.77;;;;;;;;;;5054525;28;20017;-78
2023/02/09 06:51:00;;;;;;;39.15;16.27;;;;;;;;;;5054912;28;20024;-78
2023/02/09 06:53:46;;;;;;;32.78;15.35;;;;;;;;;;5053438;28;20063;-77
2023/02/09 06:56:31;;;;;;;40.03;15.73;;;;;;;;;;5055219;28;20029;-78
2023/02/09 06:59:17;;;;;;;30.80;15.60;;;;;;;;;;5054858;28;20046;-77
2023/02/09 07:02:03;;;;;;;33.78;15.65;;;;;;;;;;5058591;28;20028;-77
2023/02/09 07:04:48;;;;;;;32.28;15.05;;;;;;;;;;5058710;28;20054;-79
2023/02/09 07:07:35;;;;;;;37.65;15.98;;;;;;;;;;5056812;28;20029;-78
2023/02/09 07:10:20;;;;;;;32.33;14.32;;;;;;;;;;5057854;28;20025;-79
2023/02/09 07:13:06;;;;;;;36.38;16.05;;;;;;;;;;5058866;28;20017;-79
2023/02/09 07:15:55;;;;;;;33.67;15.07;;;;;;;;;;5057084;28;20100;-79
2023/02/09 07:18:41;;;;;;;33.75;15.48;;;;;;;;;;5057310;28;20464;-76
2023/02/09 07:21:27;;;;;;;33.80;15.50;;;;;;;;;;5056893;28;20028;-78
2023/02/09 07:24:13;;;;;;;33.03;15.73;;;;;;;;;;5056331;28;20090;-76
2023/02/09 07:26:58;;;;;;;33.03;15.43;;;;;;;;;;5056792;28;20021;-77
2023/02/09 07:29:44;;;;;;;36.80;17.15;;;;;;;;;;5056264;28;20029;-77
2023/02/09 07:32:29;;;;;;;39.90;17.98;;;;;;;;;;5045545;28;20136;-76
2023/02/09 07:35:15;;;;;;;38.30;16.73;;;;;;;;;;5036704;28;20009;-76
2023/02/09 07:38:01;;;;;;;38.50;16.10;;;;;;;;;;5037854;28;20048;-78
2023/02/09 07:40:46;;;;;;;36.72;16.15;;;;;;;;;;5036297;28;20101;-76
2023/02/09 07:43:32;;;;;;;50.70;23.48;;;;;;;;;;5037049;28;20021;-78
2023/02/09 07:46:20;;;;;;;51.83;23.42;;;;;;;;;;5036495;28;20025;-76
2023/02/09 07:49:05;;;;;;;30.55;15.10;;;;;;;;;;5036647;28;20013;-77
2023/02/09 07:51:51;;;;;;;32.03;15.95;;;;;;;;;;5036725;28;20067;-77
2023/02/09 07:54:37;;;;;;;34.55;15.85;;;;;;;;;;5036727;28;20022;-78
2023/02/09 07:57:22;;;;;;;31.75;15.20;;;;;;;;;;5036169;28;20022;-78
2023/02/09 08:00:08;;;;;;;34.72;16.05;;;;;;;;;;5039955;28;20021;-76
2023/02/09 08:02:54;;;;;;;35.88;16.10;;;;;;;;;;5037618;28;20017;-77
2023/02/09 08:05:48;;;;;;;33.13;16.52;;;;;;;;;;5038931;28;20104;-77
2023/02/09 08:08:34;;;;;;;35.47;16.40;;;;;;;;;;5033296;28;20036;-77
2023/02/09 08:11:22;;;;;;;31.80;14.95;;;;;;;;;;5041223;28;20167;-77
2023/02/09 08:14:10;;;;;;;28.45;14.80;;;;;;;;;;5056376;28;20046;-76
2023/02/09 08:17:18;;;;;;;38.03;16.83;;;;;;;;;;5056978;28;20445;-76
2023/02/09 08:20:07;;;;;;;29.65;15.13;;;;;;;;;;5056098;28;20370;-77
2023/02/09 08:23:02;;;;;;;31.80;14.57;;;;;;;;;;5059248;28;20343;-77
2023/02/09 08:25:50;;;;;;;31.85;14.68;;;;;;;;;;5057126;28;20506;-77
2023/02/09 08:28:36;;;;;;;30.23;14.18;;;;;;;;;;5058933;28;20021;-77
2023/02/09 08:31:21;;;;;;;32.97;15.10;;;;;;;;;;5060058;28;20035;-77
2023/02/09 08:34:07;;;;;;;32.03;14.52;;;;;;;;;;5078251;28;20019;-76
2023/02/09 08:36:53;;;;;;;33.45;15.40;;;;;;;;;;5076924;28;20047;-75
2023/02/09 08:39:38;;;;;;;103.10;40.15;;;;;;;;;;5065124;28;20024;-76
2023/02/09 08:42:24;;;;;;;36.70;17.50;;;;;;;;;;5064783;28;20404;-76
2023/02/09 08:45:09;;;;;;;44.53;20.50;;;;;;;;;;5055528;28;20025;-77
2023/02/09 08:47:55;;;;;;;33.17;15.80;;;;;;;;;;5057735;28;20044;-77
2023/02/09 08:50:41;;;;;;;31.90;16.67;;;;;;;;;;5060691;28;20438;-76
2023/02/09 08:53:27;;;;;;;37.95;17.33;;;;;;;;;;5062757;28;20024;-76
2023/02/09 08:56:12;;;;;;;31.20;17.75;;;;;;;;;;5059860;28;20025;-76
2023/02/09 08:59:00;;;;;;;36.50;21.00;;;;;;;;;;5056348;28;20021;-76
2023/02/09 09:01:45;;;;;;;30.35;16.15;;;;;;;;;;5054756;28;20058;-76
2023/02/09 09:04:31;;;;;;;28.33;13.13;;;;;;;;;;5054819;28;20145;-76
2023/02/09 09:07:17;;;;;;;25.33;12.00;;;;;;;;;;5054215;28;20145;-76
2023/02/09 09:10:03;;;;;;;24.58;12.70;;;;;;;;;;5053774;28;20031;-76
2023/02/09 09:12:52;;;;;;;33.92;13.15;;;;;;;;;;5074354;28;20055;-77
2023/02/09 09:15:37;;;;;;;27.50;12.88;;;;;;;;;;5074349;28;20036;-77
2023/02/09 09:18:24;;;;;;;26.75;13.57;;;;;;;;;;5082051;28;20032;-74
2023/02/09 09:21:13;;;;;;;29.27;13.25;;;;;;;;;;5080716;28;20052;-75
2023/02/09 09:23:59;;;;;;;26.08;13.18;;;;;;;;;;5077038;28;20026;-75
2023/02/09 09:26:44;;;;;;;27.38;12.65;;;;;;;;;;5084424;28;20032;-73
2023/02/09 09:29:33;;;;;;;23.73;12.43;;;;;;;;;;5083478;28;20012;-74
2023/02/09 09:32:23;;;;;;;21.83;12.43;;;;;;;;;;5083537;28;20044;-73
2023/02/09 09:35:08;;;;;;;31.38;15.07;;;;;;;;;;5077121;28;20066;-75
2023/02/09 09:37:56;;;;;;;27.15;13.52;;;;;;;;;;5075919;28;20380;-75
2023/02/09 09:40:43;;;;;;;33.40;14.15;;;;;;;;;;5059881;28;21202;-75
2023/02/09 09:43:33;;;;;;;29.98;12.77;;;;;;;;;;5053705;28;20449;-76
2023/02/09 09:46:20;;;;;;;26.75;12.93;;;;;;;;;;5054103;28;20067;-75
2023/02/09 09:49:11;;;;;;;26.70;13.93;;;;;;;;;;5054169;28;20028;-76
2023/02/09 09:52:03;;;;;;;24.45;11.77;;;;;;;;;;5053846;28;20369;-75
2023/02/09 09:54:49;;;;;;;22.05;10.70;;;;;;;;;;5054024;28;20025;-74
2023/02/09 09:57:37;;;;;;;25.50;13.35;;;;;;;;;;5054162;28;20031;-73
2023/02/09 10:00:34;;;;;;;26.65;14.50;;;;;;;;;;5053615;28;20430;-74
2023/02/09 10:03:20;;;;;;;24.40;12.57;;;;;;;;;;5053978;28;20323;-75
2023/02/09 10:06:12;;;;;;;23.27;11.15;;;;;;;;;;5053604;28;20163;-76
2023/02/09 10:08:58;;;;;;;26.10;12.68;;;;;;;;;;5053754;28;20016;-78
2023/02/09 10:11:50;;;;;;;23.48;11.00;;;;;;;;;;5045282;28;20517;-75
2023/02/09 10:14:35;;;;;;;22.48;10.13;;;;;;;;;;5033742;28;20026;-75
2023/02/09 10:17:21;;;;;;;20.05;10.43;;;;;;;;;;5034581;28;20365;-75
2023/02/09 10:20:07;;;;;;;22.17;9.52;;;;;;;;;;5033200;28;20357;-75
2023/02/09 10:22:53;;;;;;;19.65;9.85;;;;;;;;;;5034055;28;20109;-75
2023/02/09 10:25:51;;;;;;;23.65;10.57;;;;;;;;;;5035100;28;20079;-74
2023/02/09 10:28:44;;;;;;;19.48;9.48;;;;;;;;;;5034195;28;20022;-75
2023/02/09 10:31:37;;;;;;;27.90;10.02;;;;;;;;;;5034499;28;20060;-75
2023/02/09 10:34:43;;;;;;;21.67;9.63;;;;;;;;;;5034226;28;20083;-75
2023/02/09 10:37:39;;;;;;;19.60;9.05;;;;;;;;;;5037910;28;20415;-75
2023/02/09 10:40:30;;;;;;;18.52;9.32;;;;;;;;;;5039440;28;20373;-77
2023/02/09 10:43:20;;;;;;;22.85;10.30;;;;;;;;;;5036991;28;20032;-75
2023/02/09 10:46:11;;;;;;;23.60;10.18;;;;;;;;;;5038017;28;20350;-74
2023/02/09 10:48:57;;;;;;;21.10;10.18;;;;;;;;;;5037221;28;20028;-73
2023/02/09 10:51:42;;;;;;;24.20;11.65;;;;;;;;;;5037957;28;20358;-75
2023/02/09 10:54:28;;;;;;;24.48;10.18;;;;;;;;;;5036673;28;20029;-75
2023/02/09 10:57:23;;;;;;;22.40;10.27;;;;;;;;;;5039368;28;21371;-75
2023/02/09 11:00:14;;;;;;;20.88;10.38;;;;;;;;;;5074872;28;20461;-76
2023/02/09 11:03:00;;;;;;;20.45;9.68;;;;;;;;;;5076516;28;20058;-76
2023/02/09 11:05:46;;;;;;;23.73;11.27;;;;;;;;;;5075821;28;20024;-76
2023/02/09 11:08:40;;;;;;;21.48;9.30;;;;;;;;;;5076177;28;20032;-76
2023/02/09 11:11:26;;;;;;;24.55;10.70;;;;;;;;;;5076912;28;20025;-77
2023/02/09 11:14:12;;;;;;;19.27;9.70;;;;;;;;;;5075573;28;20013;-77
2023/02/09 11:17:01;;;;;;;22.38;10.60;;;;;;;;;;5077229;28;20113;-75
2023/02/09 11:20:07;;;;;;;24.95;10.48;;;;;;;;;;5076645;28;20365;-77
2023/02/09 11:23:11;;;;;;;19.85;9.60;;;;;;;;;;5054199;28;20024;-75
2023/02/09 11:26:03;;;;;;;19.83;9.25;;;;;;;;;;5076328;28;20361;-76
2023/02/09 11:28:52;;;;;;;21.35;9.68;;;;;;;;;;5075226;28;20017;-74
2023/02/09 11:31:49;;;;;;;19.30;10.00;;;;;;;;;;5075226;28;20361;-76
2023/02/09 11:34:44;;;;;;;21.05;11.15;;;;;;;;;;5076439;28;20055;-76
2023/02/09 11:37:49;;;;;;;27.10;9.40;;;;;;;;;;5075567;28;20326;-76
2023/02/09 11:40:35;;;;;;;21.08;9.80;;;;;;;;;;5076628;28;20020;-75
2023/02/09 11:43:23;;;;;;;19.08;9.30;;;;;;;;;;5075364;28;20052;-75
2023/02/09 11:46:14;;;;;;;20.70;9.20;;;;;;;;;;5074898;28;20528;-76
2023/02/09 11:49:03;;;;;;;21.25;10.27;;;;;;;;;;5060802;28;20009;-76
2023/02/09 11:51:49;;;;;;;16.70;9.07;;;;;;;;;;5055909;28;20067;-76
2023/02/09 11:54:35;;;;;;;20.63;10.20;;;;;;;;;;5056319;28;20017;-75
2023/02/09 11:57:38;;;;;;;18.52;9.18;;;;;;;;;;5056368;28;20017;-75
2023/02/09 12:00:28;;;;;;;21.15;8.63;;;;;;;;;;5055711;28;20021;-76
2023/02/09 12:03:13;;;;;;;19.65;8.40;;;;;;;;;;5057175;28;20078;-75
2023/02/09 12:06:00;;;;;;;13.75;7.82;;;;;;;;;;5056305;28;20021;-76
2023/02/09 12:08:50;;;;;;;15.38;7.60;;;;;;;;;;5055798;28;20457;-77
2023/02/09 12:11:51;;;;;;;14.38;6.88;;;;;;;;;;5057685;28;20067;-75
2023/02/09 12:14:55;;;;;;;19.33;6.90;;;;;;;;;;5055798;28;20535;-77
2023/02/09 12:18:01;;;;;;;18.38;6.47;;;;;;;;;;5058799;28;20037;-75
2023/02/09 12:21:01;;;;;;;14.50;6.03;;;;;;;;;;5057124;28;20037;-77
2023/02/09 12:23:46;;;;;;;14.10;6.15;;;;;;;;;;5056142;28;20056;-76
2023/02/09 12:26:42;;;;;;;10.70;5.68;;;;;;;;;;5051585;28;20025;-75
2023/02/09 12:29:36;;;;;;;10.40;5.55;;;;;;;;;;5075572;28;20032;-79
2023/02/09 12:32:24;;;;;;;11.77;5.97;;;;;;;;;;5074848;28;20095;-76
2023/02/09 12:35:23;;;;;;;14.05;6.15;;;;;;;;;;5076771;28;20062;-75
2023/02/09 12:38:14;;;;;;;9.52;4.78;;;;;;;;;;5074334;28;20395;-76
2023/02/09 12:41:04;;;;;;;17.42;7.65;;;;;;;;;;5074625;28;20400;-75
2023/02/09 12:43:50;;;;;;;15.00;7.25;;;;;;;;;;5074636;28;20452;-75
2023/02/09 12:46:56;;;;;;;14.13;7.72;;;;;;;;;;5074810;28;20342;-75
2023/02/09 12:49:42;;;;;;;12.55;5.95;;;;;;;;;;5073988;28;20013;-75
2023/02/09 12:52:28;;;;;;;16.63;6.57;;;;;;;;;;5074712;28;20091;-75
2023/02/09 12:55:18;;;;;;;12.85;6.40;;;;;;;;;;5069782;28;20121;-77
2023/02/09 12:58:24;;;;;;;10.88;5.70;;;;;;;;;;5058259;28;20112;-77
2023/02/09 13:01:10;;;;;;;16.17;5.80;;;;;;;;;;5054359;28;20043;-76
2023/02/09 13:04:01;;;;;;;10.63;5.45;;;;;;;;;;5055614;28;20467;-75
2023/02/09 13:06:50;;;;;;;13.27;6.72;;;;;;;;;;5055102;28;20024;-77
2023/02/09 13:09:37;;;;;;;11.95;6.43;;;;;;;;;;5055669;28;20017;-77
2023/02/09 13:12:29;;;;;;;16.02;6.80;;;;;;;;;;5056041;28;20074;-78
2023/02/09 13:15:16;;;;;;;10.73;5.95;;;;;;;;;;5055617;28;20021;-76
2023/02/09 13:18:05;;;;;;;14.50;5.95;;;;;;;;;;5054368;28;20100;-77
2023/02/09 13:20:53;;;;;;;12.57;5.93;;;;;;;;;;5055850;28;20021;-77
2023/02/09 13:23:39;;;;;;;16.83;7.95;;;;;;;;;;5054469;28;20020;-76
2023/02/09 13:26:32;;;;;;;15.40;7.53;;;;;;;;;;5053140;28;20013;-76
2023/02/09 13:29:20;;;;;;;18.40;7.47;;;;;;;;;;5053764;28;20036;-76
2023/02/09 13:32:14;;;;;;;14.85;7.20;;;;;;;;;;5074887;28;20044;-76
2023/02/09 13:35:00;;;;;;;14.75;6.75;;;;;;;;;;5073161;28;20027;-75
2023/02/09 13:37:48;;;;;;;12.93;6.93;;;;;;;;;;5073288;28;20067;-75
2023/02/09 13:40:33;;;;;;;17.70;8.02;;;;;;;;;;5072798;28;20020;-75
2023/02/09 13:43:30;;;;;;;13.80;6.03;;;;;;;;;;5073137;28;20017;-75
2023/02/09 13:46:32;;;;;;;16.27;7.20;;;;;;;;;;5073523;28;20472;-76
2023/02/09 13:49:20;;;;;;;17.95;8.85;;;;;;;;;;5074718;28;20111;-76
2023/02/09 13:52:14;;;;;;;15.65;7.45;;;;;;;;;;5078692;28;20357;-76
2023/02/09 13:55:10;;;;;;;14.43;7.15;;;;;;;;;;5072998;28;20024;-74
2023/02/09 13:58:00;;;;;;;18.23;7.07;;;;;;;;;;5074562;28;20111;-75
2023/02/09 14:00:51;;;;;;;15.07;6.68;;;;;;;;;;5072644;28;20025;-76
2023/02/09 14:03:46;;;;;;;21.48;9.90;;;;;;;;;;5075589;28;20078;-78
2023/02/09 14:06:43;;;;;;;15.05;7.88;;;;;;;;;;5072534;28;20016;-78
2023/02/09 14:09:42;;;;;;;26.80;11.02;;;;;;;;;;5079624;28;20021;-78
2023/02/09 14:12:54;;;;;;;17.35;8.30;;;;;;;;;;5079699;28;20068;-77
2023/02/09 14:19:01;;;;;;;18.05;8.77;;;;;;;;;;5081506;28;20035;-74
2023/02/09 14:21:47;;;;;;;24.42;9.52;;;;;;;;;;5082474;28;20044;-77
2023/02/09 14:24:44;;;;;;;23.73;8.85;;;;;;;;;;5079729;28;20420;-77
2023/02/09 14:27:31;;;;;;;19.08;8.15;;;;;;;;;;5084476;28;20357;-76
2023/02/09 14:30:25;;;;;;;20.40;10.40;;;;;;;;;;5055413;28;20022;-74
2023/02/09 14:33:23;;;;;;;34.22;14.93;;;;;;;;;;5048126;28;20041;-74
2023/02/09 14:36:20;;;;;;;20.02;11.13;;;;;;;;;;5074306;28;20103;-75
2023/02/09 14:39:10;;;;;;;23.77;9.80;;;;;;;;;;5079582;28;20020;-74
2023/02/09 14:42:16;;;;;;;21.83;10.38;;;;;;;;;;5080081;28;20016;-74
2023/02/09 14:45:14;;;;;;;19.65;7.90;;;;;;;;;;5079901;28;20017;-73
2023/02/09 14:48:00;;;;;;;20.95;11.30;;;;;;;;;;5080667;28;20056;-73
2023/02/09 14:50:47;;;;;;;28.58;12.10;;;;;;;;;;5078779;28;20016;-74
2023/02/09 14:53:32;;;;;;;23.30;10.32;;;;;;;;;;5079853;28;20347;-73
2023/02/09 14:56:21;;;;;;;16.73;7.78;;;;;;;;;;5079834;28;20020;-72
2023/02/09 14:59:13;;;;;;;26.33;10.50;;;;;;;;;;5082581;28;20099;-74
2023/02/09 15:01:59;;;;;;;20.05;8.25;;;;;;;;;;5084657;28;20017;-74
2023/02/09 15:04:44;;;;;;;28.17;15.13;;;;;;;;;;5082354;28;20029;-74
2023/02/09 15:07:36;;;;;;;31.65;12.35;;;;;;;;;;5080343;28;20020;-74
2023/02/09 15:10:24;;;;;;;29.25;10.73;;;;;;;;;;5080359;28;20021;-74
2023/02/09 15:13:11;;;;;;;22.15;9.23;;;;;;;;;;5082962;28;20035;-76
2023/02/09 15:15:56;;;;;;;21.90;11.48;;;;;;;;;;5085091;28;20021;-75
2023/02/09 15:18:42;;;;;;;19.25;8.85;;;;;;;;;;5083303;28;20106;-74
2023/02/09 15:21:28;;;;;;;22.63;10.60;;;;;;;;;;5076858;28;20020;-75
2023/02/09 15:24:13;;;;;;;22.02;9.23;;;;;;;;;;5075796;28;20028;-76
2023/02/09 15:26:59;;;;;;;20.63;9.10;;;;;;;;;;5036450;28;20033;-75
2023/02/09 15:29:45;;;;;;;17.08;8.68;;;;;;;;;;5051656;28;20059;-75
2023/02/09 15:32:31;;;;;;;25.67;11.05;;;;;;;;;;5056384;28;20166;-75
2023/02/09 15:35:17;;;;;;;18.65;9.35;;;;;;;;;;5056094;28;20021;-73
2023/02/09 15:38:03;;;;;;;18.95;9.35;;;;;;;;;;5057450;28;20021;-75
2023/02/09 15:50:01;;;;;;;25.77;12.10;;;;;;;;;;5056203;28;20104;-73
2023/02/09 15:52:46;;;;;;;24.55;12.45;;;;;;;;;;5055532;28;20029;-77
2023/02/09 15:55:34;;;;;;;20.15;10.77;;;;;;;;;;5055392;28;20103;-77
2023/02/09 15:58:27;;;;;;;24.35;10.80;;;;;;;;;;5055868;28;20027;-77
2023/02/09 16:01:14;;;;;;;31.40;13.85;;;;;;;;;;5055328;28;20028;-77
2023/02/09 16:04:00;;;;;;;31.27;12.15;;;;;;;;;;5056101;28;20505;-75
2023/02/09 16:06:50;;;;;;;33.97;12.30;;;;;;;;;;5056137;28;20055;-76
2023/02/09 16:09:35;;;;;;;35.22;12.70;;;;;;;;;;5055278;28;20017;-75
2023/02/09 16:12:21;;;;;;;28.63;12.27;;;;;;;;;;5055808;28;20017;-76
2023/02/09 16:15:14;;;;;;;36.10;14.52;;;;;;;;;;5056622;28;20013;-76
2023/02/09 16:17:59;;;;;;;32.08;14.13;;;;;;;;;;5056107;28;20158;-76
2023/02/09 16:20:48;;;;;;;56.45;22.73;;;;;;;;;;5055201;28;20024;-76
2023/02/09 16:23:34;;;;;;;39.35;14.13;;;;;;;;;;5055499;28;20025;-77
2023/02/09 16:26:19;;;;;;;30.15;12.82;;;;;;;;;;5055762;28;20040;-77
2023/02/09 16:29:09;;;;;;;33.97;16.58;;;;;;;;;;5056000;28;20509;-76
2023/02/09 16:31:55;;;;;;;42.53;20.77;;;;;;;;;;5054107;28;20052;-77
2023/02/09 16:34:41;;;;;;;39.92;18.30;;;;;;;;;;5055832;28;20021;-76
2023/02/09 16:37:28;;;;;;;40.60;19.25;;;;;;;;;;5055277;28;20067;-75
2023/02/09 16:40:17;;;;;;;65.13;26.77;;;;;;;;;;5054822;28;20410;-77
2023/02/09 16:43:02;;;;;;;56.92;24.23;;;;;;;;;;5055345;28;20374;-78